createdAt,value
2022-11-18T00:00:55.194Z,3.33
2022-11-18T00:03:21.738Z,3.25
2022-11-18T00:05:55.651Z,3.58
2022-11-18T00:08:23.329Z,3.47
2022-11-18T00:10:49.680Z,3.22
2022-11-18T00:13:35.162Z,4.53
2022-11-18T00:16:03.711Z,4.10
2022-11-18T00:18:30.724Z,3.88
2022-11-18T00:21:02.216Z,3.95
2022-11-18T00:23:29.047Z,3.70
2022-11-18T00:25:55.479Z,3.60
2022-11-18T00:28:21.852Z,4.50
2022-11-18T00:30:48.240Z,5.00
2022-11-18T00:33:14.554Z,6.20
2022-11-18T00:35:40.893Z,6.00
2022-11-18T00:38:08.083Z,5.80
2022-11-18T00:40:34.383Z,5.43
2022-11-18T00:43:00.693Z,5.03
2022-11-18T00:45:27.080Z,5.03
2022-11-18T00:47:53.393Z,7.82
2022-11-18T00:50:19.805Z,8.60
2022-11-18T00:52:46.373Z,8.80
2022-11-18T00:55:12.714Z,8.88
2022-11-18T00:57:39.078Z,8.90
2022-11-18T01:00:05.998Z,8.65
2022-11-18T01:02:32.365Z,8.25
2022-11-18T01:04:58.667Z,9.48
2022-11-18T01:07:25.100Z,7.95
2022-11-18T01:09:51.525Z,8.88
2022-11-18T01:12:36.351Z,8.65
2022-11-18T01:15:02.833Z,8.70
2022-11-18T01:17:32.269Z,8.65
2022-11-18T01:19:59.029Z,8.63
2022-11-18T01:22:25.501Z,8.40
2022-11-18T01:24:51.815Z,9.05
2022-11-18T01:27:18.148Z,8.13
2022-11-18T01:29:44.486Z,8.55
2022-11-18T01:32:24.495Z,7.05
2022-11-18T01:34:51.789Z,8.73
2022-11-18T01:37:18.156Z,8.07
2022-11-18T01:39:44.499Z,8.05
2022-11-18T01:42:17.492Z,7.55
2022-11-18T01:44:58.114Z,7.55
2022-11-18T01:47:28.701Z,7.22
2022-11-18T01:49:55.197Z,7.05
2022-11-18T01:52:23.113Z,6.75
2022-11-18T01:54:55.411Z,6.82
2022-11-18T01:57:23.000Z,7.00
2022-11-18T01:59:51.831Z,6.97
2022-11-18T02:02:18.136Z,7.47
2022-11-18T02:04:48.447Z,7.50
2022-11-18T02:07:15.686Z,7.68
2022-11-18T02:09:43.081Z,8.13
2022-11-18T02:12:10.211Z,8.93
2022-11-18T02:14:40.894Z,9.15
2022-11-18T02:17:13.185Z,10.07
2022-11-18T02:20:17.098Z,9.88
2022-11-18T02:22:56.760Z,10.23
2022-11-18T02:25:44.825Z,10.43
2022-11-18T02:28:23.420Z,10.07
2022-11-18T02:30:57.704Z,10.02
2022-11-18T02:33:31.961Z,10.13
2022-11-18T02:36:19.339Z,10.35
2022-11-18T02:38:52.086Z,10.38
2022-11-18T02:41:26.301Z,10.40
2022-11-18T02:44:02.119Z,10.90
2022-11-18T02:49:03.365Z,11.18
2022-11-18T02:51:31.797Z,11.57
2022-11-18T02:54:05.121Z,11.55
2022-11-18T02:56:34.321Z,12.45
2022-11-18T02:59:00.843Z,12.15
2022-11-18T03:01:30.391Z,13.15
2022-11-18T03:03:56.908Z,14.48
2022-11-18T03:06:29.423Z,14.70
2022-11-18T03:09:21.187Z,15.20
2022-11-18T03:12:00.097Z,14.32
2022-11-18T03:14:41.440Z,13.73
2022-11-18T03:17:10.753Z,14.20
2022-11-18T03:19:58.718Z,12.73
2022-11-18T03:22:36.201Z,12.70
2022-11-18T03:25:21.146Z,12.35
2022-11-18T03:28:09.733Z,11.52
2022-11-18T03:30:40.605Z,11.20
2022-11-18T03:33:13.020Z,13.02
2022-11-18T03:35:43.002Z,12.32
2022-11-18T03:38:15.033Z,12.65
2022-11-18T03:40:48.500Z,13.68
2022-11-18T03:43:22.365Z,13.43
2022-11-18T03:45:52.030Z,13.00
2022-11-18T03:48:23.473Z,12.90
2022-11-18T03:51:06.314Z,14.50
2022-11-18T03:53:36.312Z,14.30
2022-11-18T03:56:15.822Z,14.05
2022-11-18T03:59:03.242Z,14.07
2022-11-18T04:01:37.524Z,13.57
2022-11-18T04:04:04.546Z,13.20
2022-11-18T04:06:47.478Z,13.20
2022-11-18T04:09:23.282Z,12.27
2022-11-18T04:12:04.401Z,12.27
2022-11-18T04:14:33.869Z,11.82
2022-11-18T04:17:00.657Z,11.18
2022-11-18T04:19:27.978Z,11.48
2022-11-18T04:21:54.339Z,11.88
2022-11-18T04:24:20.714Z,11.82
2022-11-18T04:26:47.011Z,12.13
2022-11-18T04:29:13.324Z,12.40
2022-11-18T04:31:39.708Z,11.48
2022-11-18T04:34:06.011Z,11.10
2022-11-18T04:36:32.332Z,12.38
2022-11-18T04:38:58.682Z,12.45
2022-11-18T04:41:44.969Z,11.40
2022-11-18T04:46:43.531Z,10.32
2022-11-18T04:49:11.773Z,9.93
2022-11-18T04:51:38.534Z,10.10
2022-11-18T04:54:05.232Z,10.15
2022-11-18T04:56:32.075Z,10.13
2022-11-18T04:59:00.724Z,10.73
2022-11-18T05:01:28.680Z,10.00
2022-11-18T05:03:55.480Z,11.30
2022-11-18T05:06:22.523Z,11.70
2022-11-18T05:08:49.569Z,13.48
2022-11-18T05:11:34.811Z,13.18
2022-11-18T05:14:01.336Z,12.73
2022-11-18T05:16:27.701Z,12.98
2022-11-18T05:18:54.093Z,13.32
2022-11-18T05:21:20.511Z,13.65
2022-11-18T05:23:46.811Z,13.95
2022-11-18T05:26:13.197Z,14.88
2022-11-18T05:28:39.702Z,15.65
2022-11-18T05:31:10.852Z,15.32
2022-11-18T05:33:38.005Z,15.10
2022-11-18T05:36:05.889Z,16.42
2022-11-18T05:38:33.844Z,16.73
2022-11-18T05:41:00.948Z,17.38
2022-11-18T05:43:28.361Z,18.50
2022-11-18T05:45:54.783Z,16.48
2022-11-18T05:48:21.536Z,18.65
2022-11-18T05:50:49.487Z,17.92
2022-11-18T05:53:17.093Z,17.90
2022-11-18T05:56:02.416Z,18.35
2022-11-18T05:58:29.926Z,18.55
2022-11-18T06:01:01.809Z,18.02
2022-11-18T06:03:32.925Z,18.33
2022-11-18T06:06:03.255Z,19.13
2022-11-18T06:08:35.974Z,18.17
2022-11-18T06:11:02.548Z,19.08
2022-11-18T06:13:37.701Z,19.23
2022-11-18T06:16:04.354Z,18.88
2022-11-18T06:18:32.917Z,17.90
2022-11-18T06:21:04.501Z,17.55
2022-11-18T06:23:35.165Z,18.15
2022-11-18T06:26:01.992Z,18.17
2022-11-18T06:28:29.627Z,19.00
2022-11-18T06:30:55.941Z,17.15
2022-11-18T06:33:22.235Z,17.08
2022-11-18T06:35:48.582Z,17.17
2022-11-18T06:38:14.892Z,17.17
2022-11-18T06:40:44.602Z,16.98
2022-11-18T06:43:30.505Z,17.60
2022-11-18T06:46:20.114Z,17.42
2022-11-18T06:48:46.798Z,15.73
2022-11-18T06:51:13.161Z,16.55
2022-11-18T06:53:39.558Z,16.40
2022-11-18T06:56:08.064Z,15.50
2022-11-18T06:58:35.934Z,15.50
2022-11-18T07:01:18.694Z,15.85
2022-11-18T07:03:46.266Z,14.48
2022-11-18T07:06:15.044Z,14.25
2022-11-18T07:08:42.475Z,13.52
2022-11-18T07:11:12.231Z,14.15
2022-11-18T07:13:43.329Z,15.40
2022-11-18T07:16:13.136Z,14.70
2022-11-18T07:18:41.673Z,15.35
2022-11-18T07:21:19.707Z,14.75
2022-11-18T07:23:46.222Z,14.73
2022-11-18T07:26:13.416Z,14.32
2022-11-18T07:28:40.261Z,14.93
2022-11-18T07:31:09.034Z,14.50
2022-11-18T07:33:36.489Z,14.60
2022-11-18T07:36:12.122Z,14.38
2022-11-18T07:38:39.237Z,14.40
2022-11-18T07:41:14.717Z,14.15
2022-11-18T07:43:41.510Z,14.23
2022-11-18T07:46:28.977Z,15.38
2022-11-18T07:48:57.506Z,14.30
2022-11-18T07:51:26.483Z,14.00
2022-11-18T07:53:53.317Z,14.93
2022-11-18T07:56:21.249Z,14.18
2022-11-18T07:58:48.148Z,14.32
2022-11-18T08:01:17.034Z,14.45
2022-11-18T08:03:44.170Z,14.68
2022-11-18T08:06:12.632Z,14.15
2022-11-18T08:08:39.305Z,14.18
2022-11-18T08:11:08.430Z,14.30
2022-11-18T08:13:35.617Z,14.15
2022-11-18T08:16:02.522Z,12.60
2022-11-18T08:18:30.800Z,12.88
2022-11-18T08:21:02.897Z,13.05
2022-11-18T08:23:33.133Z,12.40
2022-11-18T08:26:06.875Z,12.60
2022-11-18T08:28:34.012Z,12.00
2022-11-18T08:31:00.758Z,11.60
2022-11-18T08:33:27.085Z,11.20
2022-11-18T08:35:53.523Z,11.02
2022-11-18T08:40:48.376Z,10.48
2022-11-18T08:43:14.781Z,9.60
2022-11-18T08:45:41.542Z,9.05
2022-11-18T08:48:08.129Z,9.45
2022-11-18T08:50:34.476Z,9.68
2022-11-18T08:53:00.831Z,9.02
2022-11-18T08:55:27.156Z,9.18
2022-11-18T08:57:53.578Z,8.40
2022-11-18T09:00:20.032Z,9.25
2022-11-18T09:02:46.546Z,8.60
2022-11-18T09:05:12.862Z,9.05
2022-11-18T09:07:39.259Z,8.65
2022-11-18T09:10:06.051Z,8.65
2022-11-18T09:12:32.386Z,9.13
2022-11-18T09:15:15.109Z,9.50
2022-11-18T09:17:41.832Z,8.93
2022-11-18T09:20:08.771Z,9.18
2022-11-18T09:22:37.665Z,9.35
2022-11-18T09:25:04.206Z,10.38
2022-11-18T09:27:30.544Z,10.05
2022-11-18T09:29:56.861Z,9.80
2022-11-18T09:32:23.201Z,9.65
2022-11-18T09:34:49.535Z,9.88
2022-11-18T09:37:16.087Z,9.57
2022-11-18T09:39:42.513Z,9.73
2022-11-18T09:42:51.161Z,9.88
2022-11-18T09:45:28.304Z,9.25
2022-11-18T09:47:58.677Z,9.32
2022-11-18T09:55:55.805Z,8.85
2022-11-18T09:58:32.889Z,10.10
2022-11-18T10:00:59.601Z,9.63
2022-11-18T10:03:29.465Z,10.48
2022-11-18T10:06:03.533Z,10.00
2022-11-18T10:08:52.698Z,9.18
2022-11-18T10:11:23.861Z,9.45
2022-11-18T10:14:14.972Z,9.18
2022-11-18T10:16:56.619Z,8.88
2022-11-18T10:19:44.030Z,8.60
2022-11-18T10:22:22.636Z,8.75
2022-11-18T10:24:53.956Z,8.05
2022-11-18T10:27:26.934Z,8.25
2022-11-18T10:29:57.342Z,9.02
2022-11-18T10:32:23.889Z,9.15
2022-11-18T10:34:59.294Z,9.50
2022-11-18T10:38:05.828Z,9.85
2022-11-18T10:40:26.564Z,10.20
2022-11-18T10:42:53.115Z,10.77
2022-11-18T10:45:22.430Z,10.68
2022-11-18T10:48:10.099Z,10.55
2022-11-18T10:50:39.948Z,9.60
2022-11-18T10:53:32.172Z,9.70
2022-11-18T10:56:01.426Z,8.95
2022-11-18T10:58:31.185Z,9.07
2022-11-18T11:01:06.733Z,9.38
2022-11-18T11:03:37.480Z,10.18
2022-11-18T11:06:15.852Z,9.88
2022-11-18T11:09:00.294Z,10.95
2022-11-18T11:11:28.703Z,10.02
2022-11-18T11:14:01.607Z,10.40
2022-11-18T11:16:30.209Z,9.88
2022-11-18T11:19:04.069Z,9.70
2022-11-18T11:21:33.280Z,10.38
2022-11-18T11:23:59.672Z,9.95
2022-11-18T11:29:52.894Z,9.07
2022-11-18T11:32:48.589Z,10.20
2022-11-18T11:35:17.570Z,9.07
2022-11-18T11:37:43.856Z,9.77
2022-11-18T11:40:32.495Z,10.13
2022-11-18T11:43:26.846Z,9.73
2022-11-18T11:45:53.129Z,9.57
2022-11-18T11:48:40.399Z,9.77
2022-11-18T11:51:25.129Z,9.45
2022-11-18T11:54:23.173Z,9.00
2022-11-18T11:56:59.338Z,9.40
2022-11-18T11:59:45.061Z,9.55
2022-11-18T12:02:20.197Z,9.68
2022-11-18T12:04:52.274Z,9.93
2022-11-18T12:07:22.857Z,9.75
2022-11-18T12:10:08.467Z,9.68
2022-11-18T12:12:50.232Z,8.98
2022-11-18T12:15:29.243Z,8.43
2022-11-18T12:18:08.984Z,8.90
2022-11-18T12:20:42.067Z,8.93
2022-11-18T12:23:12.358Z,9.00
2022-11-18T12:25:47.773Z,8.77
2022-11-18T12:28:30.091Z,9.20
2022-11-18T12:31:18.057Z,8.88
2022-11-18T12:33:53.373Z,8.32
2022-11-18T12:36:40.005Z,8.68
2022-11-18T12:39:24.994Z,8.90
2022-11-18T12:42:17.374Z,9.95
2022-11-18T12:44:46.169Z,8.70
2022-11-18T12:47:14.400Z,10.35
2022-11-18T12:49:46.466Z,10.00
2022-11-18T12:52:31.210Z,9.48
2022-11-18T12:55:04.209Z,9.40
2022-11-18T12:57:34.639Z,9.35
2022-11-18T13:00:22.696Z,10.02
2022-11-18T13:03:03.418Z,9.35
2022-11-18T13:05:35.959Z,9.10
2022-11-18T13:08:13.975Z,9.43
2022-11-18T13:10:43.373Z,9.02
2022-11-18T13:13:32.789Z,9.52
2022-11-18T13:16:38.253Z,9.35
2022-11-18T13:19:05.928Z,9.10
2022-11-18T13:21:51.239Z,10.23
2022-11-18T13:24:20.268Z,9.50
2022-11-18T13:26:53.411Z,10.02
2022-11-18T13:29:54.356Z,9.60
2022-11-18T13:32:27.425Z,10.00
2022-11-18T13:35:05.375Z,9.85
2022-11-18T13:37:34.428Z,9.82
2022-11-18T13:40:01.064Z,9.88
2022-11-18T13:42:31.540Z,10.02
2022-11-18T13:44:59.722Z,9.50
2022-11-18T13:47:47.869Z,8.95
2022-11-18T13:50:22.631Z,9.18
2022-11-18T13:53:20.108Z,9.18
2022-11-18T13:55:49.318Z,8.60
2022-11-18T13:58:18.648Z,8.77
2022-11-18T14:00:57.249Z,8.98
2022-11-18T14:03:35.972Z,9.18
2022-11-18T14:06:02.624Z,9.43
2022-11-18T14:08:37.179Z,8.88
2022-11-18T14:11:05.432Z,9.13
2022-11-18T14:13:34.483Z,8.88
2022-11-18T14:16:04.210Z,8.60
2022-11-18T14:18:33.056Z,8.27
2022-11-18T14:21:00.732Z,8.07
2022-11-18T14:23:37.424Z,8.52
2022-11-18T14:26:06.150Z,8.20
2022-11-18T14:28:36.745Z,7.38
2022-11-18T14:31:25.063Z,8.15
2022-11-18T14:34:20.969Z,7.85
2022-11-18T14:36:48.123Z,7.55
2022-11-18T14:39:27.429Z,7.20
2022-11-18T14:41:55.127Z,7.60
2022-11-18T14:44:24.236Z,6.13
2022-11-18T14:47:23.023Z,6.82
2022-11-18T14:49:49.399Z,6.78
2022-11-18T14:52:16.306Z,7.47
2022-11-18T14:54:42.646Z,7.10
2022-11-18T14:57:15.566Z,7.03
2022-11-18T14:59:42.380Z,6.97
2022-11-18T15:02:17.174Z,7.72
2022-11-18T15:04:43.757Z,7.05
2022-11-18T15:07:18.586Z,7.80
2022-11-18T15:09:49.407Z,7.57
2022-11-18T15:12:15.806Z,7.55
2022-11-18T15:14:42.106Z,7.55
2022-11-18T15:17:12.657Z,7.47
2022-11-18T15:19:40.551Z,8.77
2022-11-18T15:22:07.405Z,8.18
2022-11-18T15:24:33.731Z,7.63
2022-11-18T15:27:04.925Z,7.53
2022-11-18T15:29:31.529Z,6.72
2022-11-18T15:31:57.955Z,6.50
2022-11-18T15:34:25.080Z,6.85
2022-11-18T15:36:51.565Z,6.38
2022-11-18T15:39:18.034Z,6.85
2022-11-18T15:41:44.546Z,6.75
2022-11-18T15:44:11.580Z,6.30
2022-11-18T15:46:38.629Z,7.22
2022-11-18T15:49:07.335Z,7.15
2022-11-18T15:51:35.967Z,6.75
2022-11-18T15:54:02.298Z,6.30
2022-11-18T15:56:30.441Z,6.55
2022-11-18T15:59:05.908Z,6.47
2022-11-18T16:01:35.061Z,6.43
2022-11-18T16:04:02.245Z,6.55
2022-11-18T16:06:28.845Z,6.63
2022-11-18T16:09:00.055Z,7.53
2022-11-18T16:11:46.973Z,6.63
2022-11-18T16:14:15.336Z,6.78
2022-11-18T16:16:43.596Z,6.07
2022-11-18T16:19:12.676Z,6.30
2022-11-18T16:21:53.819Z,5.78
2022-11-18T16:24:23.237Z,6.25
2022-11-18T16:26:50.279Z,6.40
2022-11-18T16:29:17.968Z,6.32
2022-11-18T16:31:50.718Z,6.20
2022-11-18T16:34:18.947Z,5.50
2022-11-18T16:36:52.252Z,6.20
2022-11-18T16:39:30.983Z,6.15
2022-11-18T16:42:07.458Z,5.70
2022-11-18T16:44:34.915Z,5.85
2022-11-18T16:47:07.686Z,6.15
2022-11-18T16:52:03.550Z,4.80
2022-11-18T16:54:31.944Z,5.60
2022-11-18T16:56:59.643Z,6.85
2022-11-18T16:59:28.819Z,6.15
2022-11-18T17:01:57.110Z,6.35
2022-11-18T17:04:24.664Z,6.85
2022-11-18T17:06:52.094Z,6.65
2022-11-18T17:09:21.031Z,7.10
2022-11-18T17:11:48.435Z,6.95
2022-11-18T17:14:14.833Z,6.93
2022-11-18T17:16:41.728Z,8.35
2022-11-18T17:19:13.096Z,8.73
2022-11-18T17:21:39.454Z,8.30
2022-11-18T17:24:06.684Z,8.30
2022-11-18T17:26:33.144Z,8.85
2022-11-18T17:28:59.828Z,9.80
2022-11-18T17:31:26.291Z,9.23
2022-11-18T17:33:55.080Z,10.23
2022-11-18T17:36:23.786Z,10.73
2022-11-18T17:38:52.186Z,11.00
2022-11-18T17:41:39.602Z,12.63
2022-11-18T17:44:08.217Z,11.55
2022-11-18T17:46:38.314Z,12.68
2022-11-18T17:49:07.585Z,13.13
2022-11-18T17:51:34.027Z,13.80
2022-11-18T17:54:00.403Z,13.63
2022-11-18T17:56:26.816Z,13.85
2022-11-18T17:58:53.312Z,13.95
2022-11-18T18:01:21.504Z,13.73
2022-11-18T18:03:48.539Z,14.52
2022-11-18T18:06:15.591Z,14.70
2022-11-18T18:08:42.795Z,14.20
2022-11-18T18:11:17.115Z,16.08
2022-11-18T18:14:02.971Z,14.05
2022-11-18T18:16:31.199Z,14.15
2022-11-18T18:18:58.686Z,13.93
2022-11-18T18:21:25.479Z,14.32
2022-11-18T18:23:52.013Z,12.85
2022-11-18T18:26:18.752Z,14.13
2022-11-18T18:28:45.377Z,14.48
2022-11-18T18:31:14.075Z,13.85
2022-11-18T18:33:41.189Z,14.43
2022-11-18T18:36:10.054Z,13.38
2022-11-18T18:38:38.014Z,12.10
2022-11-18T18:41:08.233Z,11.38
2022-11-18T18:43:34.690Z,10.55
2022-11-18T18:46:21.915Z,11.68
2022-11-18T18:48:48.440Z,10.73
2022-11-18T18:51:14.871Z,10.55
2022-11-18T18:53:41.322Z,10.27
2022-11-18T18:56:08.058Z,10.98
2022-11-18T18:58:34.750Z,10.73
2022-11-18T19:01:09.279Z,11.50
2022-11-18T19:03:36.179Z,12.07
2022-11-18T19:09:14.900Z,11.15
2022-11-18T19:12:00.371Z,11.65
2022-11-18T19:14:28.055Z,11.60
2022-11-18T19:16:55.289Z,11.10
2022-11-18T19:19:44.374Z,11.45
2022-11-18T19:22:13.390Z,11.73
2022-11-18T19:24:50.233Z,11.50
2022-11-18T19:27:20.369Z,12.23
2022-11-18T19:29:47.197Z,12.88
2022-11-18T19:32:13.936Z,13.13
2022-11-18T19:34:40.418Z,14.45
2022-11-18T19:37:06.982Z,14.00
2022-11-18T19:39:34.517Z,14.40
2022-11-18T19:42:01.171Z,14.30
2022-11-18T19:44:27.571Z,14.75
2022-11-18T19:46:53.973Z,14.30
2022-11-18T19:49:20.897Z,14.85
2022-11-18T19:51:47.746Z,14.43
2022-11-18T19:54:14.138Z,14.48
2022-11-18T19:56:40.795Z,14.55
2022-11-18T19:59:07.212Z,14.45
2022-11-18T20:01:33.683Z,14.10
2022-11-18T20:04:05.216Z,14.98
2022-11-18T20:06:34.176Z,14.15
2022-11-18T20:09:00.572Z,14.73
2022-11-18T20:11:28.006Z,14.82
2022-11-18T20:13:54.473Z,14.45
2022-11-18T20:16:23.496Z,15.18
2022-11-18T20:19:13.327Z,15.43
2022-11-18T20:21:43.547Z,15.20
2022-11-18T20:24:15.807Z,13.68
2022-11-18T20:30:29.676Z,13.55
2022-11-18T20:32:57.800Z,14.98
2022-11-18T20:35:24.106Z,15.00
2022-11-18T20:37:50.430Z,16.65
2022-11-18T20:40:16.781Z,15.77
2022-11-18T20:43:01.750Z,16.35
2022-11-18T20:45:28.134Z,15.68
2022-11-18T20:47:54.489Z,16.45
2022-11-18T20:50:20.884Z,16.77
2022-11-18T20:52:47.229Z,20.73
2022-11-18T20:55:13.697Z,17.30
2022-11-18T20:57:40.047Z,18.20
2022-11-18T21:00:07.105Z,17.90
2022-11-18T21:02:33.473Z,17.98
2022-11-18T21:04:59.816Z,18.08
2022-11-18T21:07:26.234Z,18.10
2022-11-18T21:09:52.705Z,17.50
2022-11-18T21:12:19.152Z,20.05
2022-11-18T21:14:45.480Z,19.17
2022-11-18T21:17:11.819Z,17.92
2022-11-18T21:19:38.164Z,17.77
2022-11-18T21:22:04.595Z,18.00
2022-11-18T21:24:32.815Z,17.55
2022-11-18T21:27:01.421Z,19.50
2022-11-18T21:29:30.105Z,19.83
2022-11-18T21:32:03.623Z,20.70
2022-11-18T21:34:30.555Z,19.63
2022-11-18T21:36:57.157Z,19.58
2022-11-18T21:39:24.985Z,19.88
2022-11-18T21:41:55.596Z,19.75
2022-11-18T21:44:23.082Z,19.02
2022-11-18T21:46:49.612Z,19.90
2022-11-18T21:49:15.926Z,20.70
2022-11-18T21:51:43.936Z,20.48
2022-11-18T21:54:11.628Z,20.10
2022-11-18T21:56:37.970Z,21.35
2022-11-18T21:59:04.919Z,21.58
2022-11-18T22:01:33.222Z,20.80
2022-11-18T22:04:02.076Z,21.23
2022-11-18T22:06:30.278Z,20.00
2022-11-18T22:08:57.416Z,20.02
2022-11-18T22:11:25.468Z,20.73
2022-11-18T22:13:52.835Z,20.20
2022-11-18T22:16:22.286Z,20.98
2022-11-18T22:18:56.015Z,21.63
2022-11-18T22:21:26.138Z,22.92
2022-11-18T22:23:52.515Z,21.42
2022-11-18T22:26:20.785Z,21.42
2022-11-18T22:28:52.094Z,22.00
2022-11-18T22:31:20.997Z,21.35
2022-11-18T22:33:51.382Z,22.00
2022-11-18T22:36:20.759Z,21.25
2022-11-18T22:38:48.063Z,20.63
2022-11-18T22:41:37.705Z,23.45
2022-11-18T22:44:07.607Z,21.15
2022-11-18T22:46:39.124Z,21.63
2022-11-18T22:49:07.239Z,21.65
2022-11-18T22:51:34.061Z,21.05
2022-11-18T22:54:30.862Z,21.08
2022-11-18T22:56:46.990Z,21.75
2022-11-18T22:59:13.491Z,22.67
2022-11-18T23:01:40.073Z,22.15
2022-11-18T23:04:06.955Z,22.67
2022-11-18T23:06:33.353Z,21.52
2022-11-18T23:08:59.698Z,22.05
2022-11-18T23:11:44.877Z,22.40
2022-11-18T23:14:11.825Z,20.45
2022-11-18T23:16:40.397Z,21.10
2022-11-18T23:19:13.149Z,21.02
2022-11-18T23:21:40.522Z,20.55
2022-11-18T23:24:09.834Z,21.80
2022-11-18T23:26:36.542Z,20.85
2022-11-18T23:29:02.939Z,21.20
2022-11-18T23:31:29.246Z,21.33
2022-11-18T23:33:57.367Z,20.63
2022-11-18T23:36:25.174Z,21.55
2022-11-18T23:38:52.820Z,21.27
2022-11-18T23:41:20.082Z,20.13
2022-11-18T23:43:48.243Z,20.02
2022-11-18T23:46:16.563Z,20.15
2022-11-18T23:48:43.694Z,19.73
2022-11-18T23:51:12.756Z,20.10
2022-11-18T23:53:39.708Z,20.95
2022-11-18T23:56:12.386Z,20.63
2022-11-18T23:58:40.495Z,21.20
